sensor_id;sensor_type;location;lat;lon;timestamp;P1;durP1;ratioP1;P2;durP2;ratioP2
72569;SDS011;60594;50.204;8.844;2023-05-10T00:00:07;10.43;;;5.22;;
72569;SDS011;60594;50.204;8.844;2023-05-10T00:02:59;9.93;;;4.78;;
72569;SDS011;60594;50.204;8.844;2023-05-10T00:05:25;9.32;;;4.43;;
72569;SDS011;60594;50.204;8.844;2023-05-10T00:07:52;10.68;;;5.07;;
72569;SDS011;60594;50.204;8.844;2023-05-10T00:10:18;7.65;;;4.53;;
72569;SDS011;60594;50.204;8.844;2023-05-10T00:12:45;9.45;;;5.03;;
72569;SDS011;60594;50.204;8.844;2023-05-10T00:15:11;11.27;;;4.28;;
72569;SDS011;60594;50.204;8.844;2023-05-10T00:17:38;9.15;;;4.45;;
72569;SDS011;60594;50.204;8.844;2023-05-10T00:20:04;5.10;;;2.72;;
72569;SDS011;60594;50.204;8.844;2023-05-10T00:22:32;5.05;;;2.63;;
72569;SDS011;60594;50.204;8.844;2023-05-10T00:24:59;4.40;;;2.40;;
72569;SDS011;60594;50.204;8.844;2023-05-10T00:27:26;3.17;;;1.20;;
72569;SDS011;60594;50.204;8.844;2023-05-10T00:29:52;3.05;;;1.27;;
72569;SDS011;60594;50.204;8.844;2023-05-10T00:32:19;4.38;;;1.02;;
72569;SDS011;60594;50.204;8.844;2023-05-10T00:34:45;2.67;;;0.80;;
72569;SDS011;60594;50.204;8.844;2023-05-10T00:37:12;3.92;;;1.65;;
72569;SDS011;60594;50.204;8.844;2023-05-10T00:39:38;3.20;;;1.30;;
72569;SDS011;60594;50.204;8.844;2023-05-10T00:42:05;2.88;;;1.20;;
72569;SDS011;60594;50.204;8.844;2023-05-10T00:44:32;1.52;;;0.70;;
72569;SDS011;60594;50.204;8.844;2023-05-10T00:46:59;2.63;;;0.80;;
72569;SDS011;60594;50.204;8.844;2023-05-10T00:49:25;1.17;;;0.52;;
72569;SDS011;60594;50.204;8.844;2023-05-10T00:51:52;1.40;;;0.50;;
72569;SDS011;60594;50.204;8.844;2023-05-10T00:54:20;2.13;;;0.90;;
72569;SDS011;60594;50.204;8.844;2023-05-10T00:56:46;2.50;;;0.75;;
72569;SDS011;60594;50.204;8.844;2023-05-10T00:59:15;8.73;;;2.05;;
72569;SDS011;60594;50.204;8.844;2023-05-10T01:01:45;3.22;;;0.80;;
72569;SDS011;60594;50.204;8.844;2023-05-10T01:04:12;2.53;;;0.90;;
72569;SDS011;60594;50.204;8.844;2023-05-10T01:06:43;3.47;;;1.10;;
72569;SDS011;60594;50.204;8.844;2023-05-10T01:09:09;3.58;;;1.23;;
72569;SDS011;60594;50.204;8.844;2023-05-10T01:11:38;2.90;;;1.40;;
72569;SDS011;60594;50.204;8.844;2023-05-10T01:14:05;3.92;;;1.55;;
72569;SDS011;60594;50.204;8.844;2023-05-10T01:16:34;3.97;;;1.90;;
72569;SDS011;60594;50.204;8.844;2023-05-10T01:19:04;3.38;;;1.52;;
72569;SDS011;60594;50.204;8.844;2023-05-10T01:24:19;4.32;;;2.10;;
72569;SDS011;60594;50.204;8.844;2023-05-10T01:32:40;3.47;;;1.48;;
72569;SDS011;60594;50.204;8.844;2023-05-10T01:35:29;3.17;;;1.30;;
72569;SDS011;60594;50.204;8.844;2023-05-10T01:40:35;3.08;;;1.35;;
72569;SDS011;60594;50.204;8.844;2023-05-10T01:43:08;5.10;;;1.70;;
72569;SDS011;60594;50.204;8.844;2023-05-10T01:48:27;4.60;;;2.28;;
72569;SDS011;60594;50.204;8.844;2023-05-10T01:50:55;4.72;;;2.17;;
72569;SDS011;60594;50.204;8.844;2023-05-10T01:53:22;5.40;;;2.67;;
72569;SDS011;60594;50.204;8.844;2023-05-10T01:55:50;4.75;;;2.40;;
72569;SDS011;60594;50.204;8.844;2023-05-10T01:58:21;6.20;;;2.22;;
72569;SDS011;60594;50.204;8.844;2023-05-10T02:00:51;3.80;;;2.10;;
72569;SDS011;60594;50.204;8.844;2023-05-10T02:03:23;4.22;;;2.20;;
72569;SDS011;60594;50.204;8.844;2023-05-10T02:05:52;4.30;;;2.08;;
72569;SDS011;60594;50.204;8.844;2023-05-10T02:08:21;4.63;;;2.00;;
72569;SDS011;60594;50.204;8.844;2023-05-10T02:10:49;3.90;;;2.10;;
72569;SDS011;60594;50.204;8.844;2023-05-10T02:13:18;4.03;;;2.10;;
72569;SDS011;60594;50.204;8.844;2023-05-10T02:15:49;4.28;;;2.17;;
72569;SDS011;60594;50.204;8.844;2023-05-10T02:18:17;4.80;;;2.40;;
72569;SDS011;60594;50.204;8.844;2023-05-10T02:20:45;4.13;;;2.17;;
72569;SDS011;60594;50.204;8.844;2023-05-10T02:23:13;3.90;;;2.10;;
72569;SDS011;60594;50.204;8.844;2023-05-10T02:25:43;4.07;;;1.80;;
72569;SDS011;60594;50.204;8.844;2023-05-10T02:28:11;5.05;;;2.80;;
72569;SDS011;60594;50.204;8.844;2023-05-10T02:30:39;4.53;;;2.08;;
72569;SDS011;60594;50.204;8.844;2023-05-10T02:33:06;3.75;;;1.85;;
72569;SDS011;60594;50.204;8.844;2023-05-10T02:35:33;3.80;;;1.92;;
72569;SDS011;60594;50.204;8.844;2023-05-10T02:38:02;4.68;;;1.70;;
72569;SDS011;60594;50.204;8.844;2023-05-10T02:40:30;4.53;;;1.80;;
72569;SDS011;60594;50.204;8.844;2023-05-10T02:42:59;3.75;;;1.40;;
72569;SDS011;60594;50.204;8.844;2023-05-10T02:45:29;3.03;;;1.42;;
72569;SDS011;60594;50.204;8.844;2023-05-10T02:47:58;3.20;;;1.30;;
72569;SDS011;60594;50.204;8.844;2023-05-10T02:50:28;6.68;;;1.48;;
72569;SDS011;60594;50.204;8.844;2023-05-10T02:53:03;2.72;;;1.40;;
72569;SDS011;60594;50.204;8.844;2023-05-10T02:55:36;3.20;;;1.25;;
72569;SDS011;60594;50.204;8.844;2023-05-10T02:58:05;3.00;;;1.40;;
72569;SDS011;60594;50.204;8.844;2023-05-10T03:00:32;3.35;;;1.50;;
72569;SDS011;60594;50.204;8.844;2023-05-10T03:02:58;3.40;;;1.50;;
72569;SDS011;60594;50.204;8.844;2023-05-10T03:05:25;3.40;;;1.17;;
72569;SDS011;60594;50.204;8.844;2023-05-10T03:07:52;3.97;;;2.08;;
72569;SDS011;60594;50.204;8.844;2023-05-10T03:10:19;4.63;;;1.58;;
72569;SDS011;60594;50.204;8.844;2023-05-10T03:15:51;6.25;;;1.55;;
72569;SDS011;60594;50.204;8.844;2023-05-10T03:18:44;3.25;;;1.42;;
72569;SDS011;60594;50.204;8.844;2023-05-10T03:21:20;3.33;;;1.63;;
72569;SDS011;60594;50.204;8.844;2023-05-10T03:23:51;4.95;;;2.03;;
72569;SDS011;60594;50.204;8.844;2023-05-10T03:26:33;5.43;;;2.00;;
72569;SDS011;60594;50.204;8.844;2023-05-10T03:29:07;4.40;;;2.00;;
72569;SDS011;60594;50.204;8.844;2023-05-10T03:31:35;3.80;;;1.88;;
72569;SDS011;60594;50.204;8.844;2023-05-10T03:34:01;5.07;;;2.03;;
72569;SDS011;60594;50.204;8.844;2023-05-10T03:36:28;4.32;;;1.67;;
72569;SDS011;60594;50.204;8.844;2023-05-10T03:38:56;4.47;;;1.90;;
72569;SDS011;60594;50.204;8.844;2023-05-10T03:41:22;4.50;;;1.80;;
72569;SDS011;60594;50.204;8.844;2023-05-10T03:43:49;4.05;;;1.85;;
72569;SDS011;60594;50.204;8.844;2023-05-10T03:46:15;3.70;;;1.65;;
72569;SDS011;60594;50.204;8.844;2023-05-10T03:48:42;3.80;;;1.70;;
72569;SDS011;60594;50.204;8.844;2023-05-10T03:51:08;5.85;;;1.80;;
72569;SDS011;60594;50.204;8.844;2023-05-10T03:53:35;3.88;;;1.58;;
72569;SDS011;60594;50.204;8.844;2023-05-10T03:56:01;4.93;;;1.83;;
72569;SDS011;60594;50.204;8.844;2023-05-10T03:58:28;5.00;;;1.85;;
72569;SDS011;60594;50.204;8.844;2023-05-10T04:00:54;5.32;;;1.77;;
72569;SDS011;60594;50.204;8.844;2023-05-10T04:03:21;3.97;;;1.85;;
72569;SDS011;60594;50.204;8.844;2023-05-10T04:05:47;5.55;;;1.70;;
72569;SDS011;60594;50.204;8.844;2023-05-10T04:08:14;4.07;;;1.80;;
72569;SDS011;60594;50.204;8.844;2023-05-10T04:10:42;3.85;;;1.67;;
72569;SDS011;60594;50.204;8.844;2023-05-10T04:13:08;3.40;;;1.63;;
72569;SDS011;60594;50.204;8.844;2023-05-10T04:15:35;5.40;;;1.90;;
72569;SDS011;60594;50.204;8.844;2023-05-10T04:18:02;4.20;;;1.80;;
72569;SDS011;60594;50.204;8.844;2023-05-10T04:20:28;4.80;;;1.50;;
72569;SDS011;60594;50.204;8.844;2023-05-10T04:22:55;5.22;;;2.08;;
72569;SDS011;60594;50.204;8.844;2023-05-10T04:25:21;3.28;;;1.38;;
72569;SDS011;60594;50.204;8.844;2023-05-10T04:27:48;3.22;;;1.45;;
72569;SDS011;60594;50.204;8.844;2023-05-10T04:30:14;3.50;;;1.20;;
72569;SDS011;60594;50.204;8.844;2023-05-10T04:32:41;4.10;;;1.40;;
72569;SDS011;60594;50.204;8.844;2023-05-10T04:35:07;2.90;;;1.30;;
72569;SDS011;60594;50.204;8.844;2023-05-10T04:37:36;3.20;;;1.30;;
72569;SDS011;60594;50.204;8.844;2023-05-10T04:40:02;3.60;;;1.42;;
72569;SDS011;60594;50.204;8.844;2023-05-10T04:42:29;7.65;;;1.80;;
72569;SDS011;60594;50.204;8.844;2023-05-10T04:44:56;6.20;;;1.45;;
72569;SDS011;60594;50.204;8.844;2023-05-10T04:47:22;3.83;;;1.65;;
72569;SDS011;60594;50.204;8.844;2023-05-10T04:49:48;4.20;;;1.63;;
72569;SDS011;60594;50.204;8.844;2023-05-10T04:52:15;3.85;;;1.60;;
72569;SDS011;60594;50.204;8.844;2023-05-10T04:54:43;3.80;;;1.52;;
72569;SDS011;60594;50.204;8.844;2023-05-10T04:57:09;4.00;;;1.90;;
72569;SDS011;60594;50.204;8.844;2023-05-10T04:59:36;3.75;;;1.63;;
72569;SDS011;60594;50.204;8.844;2023-05-10T05:02:03;4.80;;;1.98;;
72569;SDS011;60594;50.204;8.844;2023-05-10T05:04:30;3.60;;;1.65;;
72569;SDS011;60594;50.204;8.844;2023-05-10T05:06:58;3.75;;;1.63;;
72569;SDS011;60594;50.204;8.844;2023-05-10T05:09:24;3.63;;;1.70;;
72569;SDS011;60594;50.204;8.844;2023-05-10T05:11:50;4.43;;;1.88;;
72569;SDS011;60594;50.204;8.844;2023-05-10T05:14:17;4.47;;;2.00;;
72569;SDS011;60594;50.204;8.844;2023-05-10T05:16:43;4.40;;;2.80;;
72569;SDS011;60594;50.204;8.844;2023-05-10T05:19:10;5.22;;;2.10;;
72569;SDS011;60594;50.204;8.844;2023-05-10T05:21:37;4.93;;;2.50;;
72569;SDS011;60594;50.204;8.844;2023-05-10T05:24:03;6.15;;;2.40;;
72569;SDS011;60594;50.204;8.844;2023-05-10T05:26:30;6.88;;;2.67;;
72569;SDS011;60594;50.204;8.844;2023-05-10T05:28:57;6.30;;;2.90;;
72569;SDS011;60594;50.204;8.844;2023-05-10T05:31:23;5.55;;;2.63;;
72569;SDS011;60594;50.204;8.844;2023-05-10T05:33:50;5.32;;;2.33;;
72569;SDS011;60594;50.204;8.844;2023-05-10T05:36:16;4.65;;;2.20;;
72569;SDS011;60594;50.204;8.844;2023-05-10T05:38:42;4.00;;;2.00;;
72569;SDS011;60594;50.204;8.844;2023-05-10T05:41:09;4.90;;;2.63;;
72569;SDS011;60594;50.204;8.844;2023-05-10T05:43:35;7.45;;;2.60;;
72569;SDS011;60594;50.204;8.844;2023-05-10T05:46:02;4.88;;;2.50;;
72569;SDS011;60594;50.204;8.844;2023-05-10T05:48:29;5.70;;;2.78;;
72569;SDS011;60594;50.204;8.844;2023-05-10T05:50:56;6.43;;;2.80;;
72569;SDS011;60594;50.204;8.844;2023-05-10T05:53:23;5.50;;;3.00;;
72569;SDS011;60594;50.204;8.844;2023-05-10T05:55:56;6.05;;;2.88;;
72569;SDS011;60594;50.204;8.844;2023-05-10T05:58:24;6.85;;;2.92;;
72569;SDS011;60594;50.204;8.844;2023-05-10T06:00:52;7.07;;;3.15;;
72569;SDS011;60594;50.204;8.844;2023-05-10T06:03:18;6.47;;;3.38;;
72569;SDS011;60594;50.204;8.844;2023-05-10T06:05:45;9.00;;;3.15;;
72569;SDS011;60594;50.204;8.844;2023-05-10T06:08:12;7.22;;;3.63;;
72569;SDS011;60594;50.204;8.844;2023-05-10T06:10:38;7.18;;;2.97;;
72569;SDS011;60594;50.204;8.844;2023-05-10T06:13:05;7.97;;;4.05;;
72569;SDS011;60594;50.204;8.844;2023-05-10T06:15:31;7.80;;;3.85;;
72569;SDS011;60594;50.204;8.844;2023-05-10T06:17:58;7.55;;;3.63;;
72569;SDS011;60594;50.204;8.844;2023-05-10T06:20:25;7.00;;;4.20;;
72569;SDS011;60594;50.204;8.844;2023-05-10T06:22:51;8.20;;;4.15;;
72569;SDS011;60594;50.204;8.844;2023-05-10T06:25:18;6.65;;;3.63;;
72569;SDS011;60594;50.204;8.844;2023-05-10T06:27:44;7.68;;;4.47;;
72569;SDS011;60594;50.204;8.844;2023-05-10T06:30:11;6.80;;;3.78;;
72569;SDS011;60594;50.204;8.844;2023-05-10T06:32:39;8.00;;;3.90;;
72569;SDS011;60594;50.204;8.844;2023-05-10T06:35:06;11.18;;;4.43;;
72569;SDS011;60594;50.204;8.844;2023-05-10T06:37:32;9.38;;;5.20;;
72569;SDS011;60594;50.204;8.844;2023-05-10T06:39:59;10.55;;;5.90;;
72569;SDS011;60594;50.204;8.844;2023-05-10T06:42:26;8.88;;;4.88;;
72569;SDS011;60594;50.204;8.844;2023-05-10T06:44:53;9.32;;;4.30;;
72569;SDS011;60594;50.204;8.844;2023-05-10T06:47:19;8.95;;;4.55;;
72569;SDS011;60594;50.204;8.844;2023-05-10T06:49:46;8.88;;;4.57;;
72569;SDS011;60594;50.204;8.844;2023-05-10T06:52:12;9.52;;;5.15;;
72569;SDS011;60594;50.204;8.844;2023-05-10T06:54:39;8.10;;;4.15;;
72569;SDS011;60594;50.204;8.844;2023-05-10T06:57:05;9.27;;;4.30;;
72569;SDS011;60594;50.204;8.844;2023-05-10T06:59:32;9.02;;;4.93;;
72569;SDS011;60594;50.204;8.844;2023-05-10T07:01:59;8.77;;;3.95;;
72569;SDS011;60594;50.204;8.844;2023-05-10T07:04:25;10.13;;;4.10;;
72569;SDS011;60594;50.204;8.844;2023-05-10T07:06:51;7.60;;;3.85;;
72569;SDS011;60594;50.204;8.844;2023-05-10T07:09:18;8.95;;;4.28;;
72569;SDS011;60594;50.204;8.844;2023-05-10T07:11:44;7.90;;;4.35;;
72569;SDS011;60594;50.204;8.844;2023-05-10T07:14:11;6.68;;;3.67;;
72569;SDS011;60594;50.204;8.844;2023-05-10T07:16:37;8.05;;;3.90;;
72569;SDS011;60594;50.204;8.844;2023-05-10T07:19:04;9.13;;;4.20;;
72569;SDS011;60594;50.204;8.844;2023-05-10T07:21:31;10.70;;;3.97;;
72569;SDS011;60594;50.204;8.844;2023-05-10T07:23:58;9.70;;;3.72;;
72569;SDS011;60594;50.204;8.844;2023-05-10T07:26:25;8.05;;;5.03;;
72569;SDS011;60594;50.204;8.844;2023-05-10T07:28:52;9.73;;;4.07;;
72569;SDS011;60594;50.204;8.844;2023-05-10T07:31:18;8.63;;;3.53;;
72569;SDS011;60594;50.204;8.844;2023-05-10T07:33:45;7.30;;;3.72;;
72569;SDS011;60594;50.204;8.844;2023-05-10T07:36:11;8.85;;;3.90;;
72569;SDS011;60594;50.204;8.844;2023-05-10T07:38:38;6.75;;;3.05;;
72569;SDS011;60594;50.204;8.844;2023-05-10T07:41:05;7.25;;;3.10;;
72569;SDS011;60594;50.204;8.844;2023-05-10T07:43:32;6.93;;;3.45;;
72569;SDS011;60594;50.204;8.844;2023-05-10T07:45:58;8.23;;;3.35;;
72569;SDS011;60594;50.204;8.844;2023-05-10T07:48:25;9.20;;;3.15;;
72569;SDS011;60594;50.204;8.844;2023-05-10T07:50:52;7.55;;;3.53;;
72569;SDS011;60594;50.204;8.844;2023-05-10T07:53:18;7.15;;;3.28;;
72569;SDS011;60594;50.204;8.844;2023-05-10T07:55:49;7.43;;;3.60;;
72569;SDS011;60594;50.204;8.844;2023-05-10T07:58:16;8.93;;;3.35;;
72569;SDS011;60594;50.204;8.844;2023-05-10T08:00:43;7.55;;;3.40;;
72569;SDS011;60594;50.204;8.844;2023-05-10T08:03:09;8.57;;;3.92;;
72569;SDS011;60594;50.204;8.844;2023-05-10T08:05:36;9.40;;;3.08;;
72569;SDS011;60594;50.204;8.844;2023-05-10T08:08:02;6.63;;;3.00;;
72569;SDS011;60594;50.204;8.844;2023-05-10T08:10:29;6.97;;;2.90;;
72569;SDS011;60594;50.204;8.844;2023-05-10T08:12:55;6.65;;;3.00;;
72569;SDS011;60594;50.204;8.844;2023-05-10T08:15:22;8.10;;;4.35;;
72569;SDS011;60594;50.204;8.844;2023-05-10T08:17:48;7.10;;;2.97;;
72569;SDS011;60594;50.204;8.844;2023-05-10T08:20:15;9.65;;;3.10;;
72569;SDS011;60594;50.204;8.844;2023-05-10T08:22:45;8.27;;;2.78;;
72569;SDS011;60594;50.204;8.844;2023-05-10T08:25:12;6.00;;;3.03;;
72569;SDS011;60594;50.204;8.844;2023-05-10T08:27:38;5.32;;;3.30;;
72569;SDS011;60594;50.204;8.844;2023-05-10T08:30:05;7.20;;;2.97;;
72569;SDS011;60594;50.204;8.844;2023-05-10T08:32:32;6.30;;;2.75;;
72569;SDS011;60594;50.204;8.844;2023-05-10T08:34:59;5.53;;;2.78;;
72569;SDS011;60594;50.204;8.844;2023-05-10T08:37:25;9.07;;;2.55;;
72569;SDS011;60594;50.204;8.844;2023-05-10T08:39:52;6.05;;;2.67;;
72569;SDS011;60594;50.204;8.844;2023-05-10T08:42:19;6.40;;;2.85;;
72569;SDS011;60594;50.204;8.844;2023-05-10T08:44:49;6.20;;;2.88;;
72569;SDS011;60594;50.204;8.844;2023-05-10T08:47:17;6.35;;;2.88;;
72569;SDS011;60594;50.204;8.844;2023-05-10T08:49:44;5.05;;;2.53;;
72569;SDS011;60594;50.204;8.844;2023-05-10T08:52:14;5.70;;;2.88;;
72569;SDS011;60594;50.204;8.844;2023-05-10T08:54:42;4.72;;;2.42;;
72569;SDS011;60594;50.204;8.844;2023-05-10T08:57:10;6.63;;;2.85;;
72569;SDS011;60594;50.204;8.844;2023-05-10T08:59:36;6.75;;;3.33;;
72569;SDS011;60594;50.204;8.844;2023-05-10T09:02:05;5.80;;;3.25;;
72569;SDS011;60594;50.204;8.844;2023-05-10T09:04:32;7.22;;;3.13;;
72569;SDS011;60594;50.204;8.844;2023-05-10T09:06:59;8.18;;;3.90;;
72569;SDS011;60594;50.204;8.844;2023-05-10T09:09:25;6.55;;;3.13;;
72569;SDS011;60594;50.204;8.844;2023-05-10T09:11:53;4.90;;;2.88;;
72569;SDS011;60594;50.204;8.844;2023-05-10T09:14:20;6.45;;;2.45;;
72569;SDS011;60594;50.204;8.844;2023-05-10T09:16:47;5.72;;;2.65;;
72569;SDS011;60594;50.204;8.844;2023-05-10T09:19:14;4.70;;;2.40;;
72569;SDS011;60594;50.204;8.844;2023-05-10T09:21:40;5.82;;;2.55;;
72569;SDS011;60594;50.204;8.844;2023-05-10T09:24:07;6.40;;;2.30;;
72569;SDS011;60594;50.204;8.844;2023-05-10T09:26:34;4.97;;;2.65;;
72569;SDS011;60594;50.204;8.844;2023-05-10T09:29:02;7.50;;;2.78;;
72569;SDS011;60594;50.204;8.844;2023-05-10T09:34:30;7.47;;;2.92;;
72569;SDS011;60594;50.204;8.844;2023-05-10T09:37:00;6.55;;;2.78;;
72569;SDS011;60594;50.204;8.844;2023-05-10T09:39:30;7.70;;;3.20;;
72569;SDS011;60594;50.204;8.844;2023-05-10T09:42:01;5.20;;;2.92;;
72569;SDS011;60594;50.204;8.844;2023-05-10T09:44:30;4.72;;;2.70;;
72569;SDS011;60594;50.204;8.844;2023-05-10T09:46:57;4.72;;;1.77;;
72569;SDS011;60594;50.204;8.844;2023-05-10T09:49:24;4.63;;;1.90;;
72569;SDS011;60594;50.204;8.844;2023-05-10T09:51:59;6.53;;;1.80;;
72569;SDS011;60594;50.204;8.844;2023-05-10T09:54:29;4.75;;;2.08;;
72569;SDS011;60594;50.204;8.844;2023-05-10T09:56:56;5.45;;;1.80;;
72569;SDS011;60594;50.204;8.844;2023-05-10T09:59:24;3.47;;;1.60;;
72569;SDS011;60594;50.204;8.844;2023-05-10T10:01:55;4.28;;;1.80;;
72569;SDS011;60594;50.204;8.844;2023-05-10T10:04:23;4.90;;;2.00;;
72569;SDS011;60594;50.204;8.844;2023-05-10T10:06:59;4.60;;;1.98;;
72569;SDS011;60594;50.204;8.844;2023-05-10T10:09:29;4.65;;;2.33;;
72569;SDS011;60594;50.204;8.844;2023-05-10T10:11:56;4.20;;;1.63;;
72569;SDS011;60594;50.204;8.844;2023-05-10T10:14:23;4.22;;;3.10;;
72569;SDS011;60594;50.204;8.844;2023-05-10T10:16:53;6.28;;;2.33;;
72569;SDS011;60594;50.204;8.844;2023-05-10T10:19:19;4.78;;;2.10;;
72569;SDS011;60594;50.204;8.844;2023-05-10T10:21:49;5.45;;;2.38;;
72569;SDS011;60594;50.204;8.844;2023-05-10T10:24:16;6.93;;;2.45;;
72569;SDS011;60594;50.204;8.844;2023-05-10T10:26:42;5.25;;;1.80;;
72569;SDS011;60594;50.204;8.844;2023-05-10T10:34:33;4.00;;;1.60;;
72569;SDS011;60594;50.204;8.844;2023-05-10T10:37:04;3.60;;;1.63;;
72569;SDS011;60594;50.204;8.844;2023-05-10T10:39:31;3.30;;;1.60;;
72569;SDS011;60594;50.204;8.844;2023-05-10T10:41:58;4.43;;;1.80;;
72569;SDS011;60594;50.204;8.844;2023-05-10T10:47:07;3.90;;;1.65;;
72569;SDS011;60594;50.204;8.844;2023-05-10T10:49:42;3.60;;;1.52;;
72569;SDS011;60594;50.204;8.844;2023-05-10T10:52:23;4.00;;;2.38;;
72569;SDS011;60594;50.204;8.844;2023-05-10T10:57:32;5.70;;;1.90;;
72569;SDS011;60594;50.204;8.844;2023-05-10T11:00:17;5.38;;;2.17;;
72569;SDS011;60594;50.204;8.844;2023-05-10T11:03:13;6.25;;;2.47;;
72569;SDS011;60594;50.204;8.844;2023-05-10T11:05:44;3.85;;;1.50;;
72569;SDS011;60594;50.204;8.844;2023-05-10T11:08:13;8.50;;;1.73;;
72569;SDS011;60594;50.204;8.844;2023-05-10T11:10:52;4.43;;;1.77;;
72569;SDS011;60594;50.204;8.844;2023-05-10T11:13:44;4.88;;;1.38;;
72569;SDS011;60594;50.204;8.844;2023-05-10T11:16:13;3.33;;;1.33;;
72569;SDS011;60594;50.204;8.844;2023-05-10T11:18:54;4.57;;;1.50;;
72569;SDS011;60594;50.204;8.844;2023-05-10T11:21:24;3.22;;;1.50;;
72569;SDS011;60594;50.204;8.844;2023-05-10T11:23:51;5.53;;;1.45;;
72569;SDS011;60594;50.204;8.844;2023-05-10T11:26:26;2.88;;;0.90;;
72569;SDS011;60594;50.204;8.844;2023-05-10T11:28:57;2.83;;;0.70;;
72569;SDS011;60594;50.204;8.844;2023-05-10T11:31:28;2.22;;;0.80;;
72569;SDS011;60594;50.204;8.844;2023-05-10T11:33:55;1.30;;;0.63;;
72569;SDS011;60594;50.204;8.844;2023-05-10T11:38:52;3.75;;;1.60;;
72569;SDS011;60594;50.204;8.844;2023-05-10T11:41:19;2.05;;;0.90;;
72569;SDS011;60594;50.204;8.844;2023-05-10T11:43:49;3.10;;;1.00;;
72569;SDS011;60594;50.204;8.844;2023-05-10T11:46:18;1.52;;;0.70;;
72569;SDS011;60594;50.204;8.844;2023-05-10T11:48:47;2.58;;;0.80;;
72569;SDS011;60594;50.204;8.844;2023-05-10T11:51:20;2.95;;;0.98;;
72569;SDS011;60594;50.204;8.844;2023-05-10T11:53:48;2.20;;;1.00;;
72569;SDS011;60594;50.204;8.844;2023-05-10T11:56:16;2.53;;;0.90;;
72569;SDS011;60594;50.204;8.844;2023-05-10T11:58:43;1.50;;;0.70;;
72569;SDS011;60594;50.204;8.844;2023-05-10T12:01:09;3.28;;;1.08;;
72569;SDS011;60594;50.204;8.844;2023-05-10T12:03:36;3.05;;;1.20;;
72569;SDS011;60594;50.204;8.844;2023-05-10T12:06:03;3.10;;;1.00;;
72569;SDS011;60594;50.204;8.844;2023-05-10T12:08:30;2.70;;;1.08;;
72569;SDS011;60594;50.204;8.844;2023-05-10T12:11:07;2.70;;;1.00;;
72569;SDS011;60594;50.204;8.844;2023-05-10T12:13:38;3.35;;;1.00;;
72569;SDS011;60594;50.204;8.844;2023-05-10T12:16:18;3.05;;;1.10;;
72569;SDS011;60594;50.204;8.844;2023-05-10T12:18:50;3.67;;;1.08;;
72569;SDS011;60594;50.204;8.844;2023-05-10T12:21:18;2.78;;;0.98;;
72569;SDS011;60594;50.204;8.844;2023-05-10T12:23:46;3.03;;;1.58;;
72569;SDS011;60594;50.204;8.844;2023-05-10T12:26:15;3.28;;;1.10;;
72569;SDS011;60594;50.204;8.844;2023-05-10T12:28:42;2.20;;;1.00;;
72569;SDS011;60594;50.204;8.844;2023-05-10T12:31:08;2.63;;;0.95;;
72569;SDS011;60594;50.204;8.844;2023-05-10T12:33:53;1.50;;;0.70;;
72569;SDS011;60594;50.204;8.844;2023-05-10T12:36:22;2.40;;;1.02;;
72569;SDS011;60594;50.204;8.844;2023-05-10T12:38:50;3.15;;;1.17;;
72569;SDS011;60594;50.204;8.844;2023-05-10T12:41:18;3.67;;;1.00;;
72569;SDS011;60594;50.204;8.844;2023-05-10T12:43:45;2.45;;;1.30;;
72569;SDS011;60594;50.204;8.844;2023-05-10T12:46:12;5.85;;;2.22;;
72569;SDS011;60594;50.204;8.844;2023-05-10T12:48:40;3.50;;;1.38;;
72569;SDS011;60594;50.204;8.844;2023-05-10T12:51:07;3.53;;;1.33;;
72569;SDS011;60594;50.204;8.844;2023-05-10T12:53:35;3.85;;;1.52;;
72569;SDS011;60594;50.204;8.844;2023-05-10T12:56:02;2.90;;;1.20;;
72569;SDS011;60594;50.204;8.844;2023-05-10T12:58:29;3.08;;;1.25;;
72569;SDS011;60594;50.204;8.844;2023-05-10T13:00:55;3.13;;;1.40;;
72569;SDS011;60594;50.204;8.844;2023-05-10T13:05:50;2.83;;;1.20;;
72569;SDS011;60594;50.204;8.844;2023-05-10T13:08:17;3.03;;;1.30;;
72569;SDS011;60594;50.204;8.844;2023-05-10T13:10:43;2.72;;;1.23;;
72569;SDS011;60594;50.204;8.844;2023-05-10T13:13:10;4.43;;;1.58;;
72569;SDS011;60594;50.204;8.844;2023-05-10T13:15:36;3.83;;;1.23;;
72569;SDS011;60594;50.204;8.844;2023-05-10T13:18:03;4.57;;;1.27;;
72569;SDS011;60594;50.204;8.844;2023-05-10T13:20:29;4.32;;;1.30;;
72569;SDS011;60594;50.204;8.844;2023-05-10T13:22:56;5.63;;;1.60;;
72569;SDS011;60594;50.204;8.844;2023-05-10T13:25:22;3.17;;;1.50;;
72569;SDS011;60594;50.204;8.844;2023-05-10T13:27:49;2.80;;;1.25;;
72569;SDS011;60594;50.204;8.844;2023-05-10T13:30:16;3.25;;;1.33;;
72569;SDS011;60594;50.204;8.844;2023-05-10T13:32:42;4.00;;;1.30;;
72569;SDS011;60594;50.204;8.844;2023-05-10T13:35:08;3.30;;;1.77;;
72569;SDS011;60594;50.204;8.844;2023-05-10T13:37:35;4.88;;;1.90;;
72569;SDS011;60594;50.204;8.844;2023-05-10T13:40:03;2.72;;;1.10;;
72569;SDS011;60594;50.204;8.844;2023-05-10T13:42:31;2.83;;;0.95;;
72569;SDS011;60594;50.204;8.844;2023-05-10T13:44:59;4.18;;;1.25;;
72569;SDS011;60594;50.204;8.844;2023-05-10T13:47:28;3.17;;;1.35;;
72569;SDS011;60594;50.204;8.844;2023-05-10T13:49:54;2.55;;;1.08;;
72569;SDS011;60594;50.204;8.844;2023-05-10T13:52:21;3.47;;;1.30;;
72569;SDS011;60594;50.204;8.844;2023-05-10T13:54:47;2.90;;;1.10;;
72569;SDS011;60594;50.204;8.844;2023-05-10T13:57:14;3.42;;;1.00;;
72569;SDS011;60594;50.204;8.844;2023-05-10T14:02:09;4.45;;;1.20;;
72569;SDS011;60594;50.204;8.844;2023-05-10T14:04:38;4.22;;;1.30;;
72569;SDS011;60594;50.204;8.844;2023-05-10T14:07:05;2.90;;;1.27;;
72569;SDS011;60594;50.204;8.844;2023-05-10T14:09:31;3.80;;;1.30;;
72569;SDS011;60594;50.204;8.844;2023-05-10T14:11:58;4.22;;;1.20;;
72569;SDS011;60594;50.204;8.844;2023-05-10T14:14:24;2.22;;;1.10;;
72569;SDS011;60594;50.204;8.844;2023-05-10T14:16:51;2.70;;;1.10;;
72569;SDS011;60594;50.204;8.844;2023-05-10T14:19:17;2.55;;;1.10;;
72569;SDS011;60594;50.204;8.844;2023-05-10T14:21:44;3.13;;;0.98;;
72569;SDS011;60594;50.204;8.844;2023-05-10T14:24:10;2.53;;;0.98;;
72569;SDS011;60594;50.204;8.844;2023-05-10T14:26:37;4.22;;;1.95;;
72569;SDS011;60594;50.204;8.844;2023-05-10T14:29:03;2.75;;;1.02;;
72569;SDS011;60594;50.204;8.844;2023-05-10T14:31:30;4.97;;;1.27;;
72569;SDS011;60594;50.204;8.844;2023-05-10T14:33:57;2.55;;;1.10;;
72569;SDS011;60594;50.204;8.844;2023-05-10T14:36:25;2.63;;;0.93;;
72569;SDS011;60594;50.204;8.844;2023-05-10T14:38:51;3.67;;;0.80;;
72569;SDS011;60594;50.204;8.844;2023-05-10T14:41:18;2.55;;;0.93;;
72569;SDS011;60594;50.204;8.844;2023-05-10T14:43:44;1.58;;;0.77;;
72569;SDS011;60594;50.204;8.844;2023-05-10T14:46:10;2.25;;;1.45;;
72569;SDS011;60594;50.204;8.844;2023-05-10T14:48:37;1.63;;;0.70;;
72569;SDS011;60594;50.204;8.844;2023-05-10T14:51:04;1.90;;;0.85;;
72569;SDS011;60594;50.204;8.844;2023-05-10T14:53:30;2.78;;;1.13;;
72569;SDS011;60594;50.204;8.844;2023-05-10T14:55:57;1.85;;;0.70;;
72569;SDS011;60594;50.204;8.844;2023-05-10T14:58:23;3.70;;;1.00;;
72569;SDS011;60594;50.204;8.844;2023-05-10T15:00:50;2.50;;;1.30;;
72569;SDS011;60594;50.204;8.844;2023-05-10T15:03:16;2.55;;;1.58;;
72569;SDS011;60594;50.204;8.844;2023-05-10T15:05:43;2.17;;;0.80;;
72569;SDS011;60594;50.204;8.844;2023-05-10T15:08:09;2.28;;;0.80;;
72569;SDS011;60594;50.204;8.844;2023-05-10T15:10:35;3.60;;;1.20;;
72569;SDS011;60594;50.204;8.844;2023-05-10T15:13:03;3.67;;;0.90;;
72569;SDS011;60594;50.204;8.844;2023-05-10T15:15:30;0.88;;;0.50;;
72569;SDS011;60594;50.204;8.844;2023-05-10T15:17:56;1.92;;;0.70;;
72569;SDS011;60594;50.204;8.844;2023-05-10T15:20:23;2.40;;;0.80;;
72569;SDS011;60594;50.204;8.844;2023-05-10T15:22:49;3.45;;;0.90;;
72569;SDS011;60594;50.204;8.844;2023-05-10T15:25:16;3.13;;;0.77;;
72569;SDS011;60594;50.204;8.844;2023-05-10T15:27:43;2.33;;;0.80;;
72569;SDS011;60594;50.204;8.844;2023-05-10T15:30:10;1.55;;;0.80;;